Time;durP1;ratioP1;P1;durP2;ratioP2;P2;SDS_P1;SDS_P2;PMS_P1;PMS_P2;Temp;Humidity;BMP_temperature;BMP_pressure;BME280_temperature;BME280_humidity;BME280_pressure;Samples;Min_cycle;Max_cycle;Signal;HPM_P1;HPM_P2
2021/12/26 00:03:51;;;;;;;18.02;5.32;;;;;;;;;;10227006;28;20069;-78
2021/12/26 00:08:56;;;;;;;17.37;5.43;;;;;;;;;;10273335;28;20104;-77
2021/12/26 00:13:59;;;;;;;19.17;5.30;;;;;;;;;;10259825;28;20071;-77
2021/12/26 00:19:23;;;;;;;14.27;5.30;;;;;;;;;;10274957;28;20043;-78
2021/12/26 00:24:28;;;;;;;17.40;5.20;;;;;;;;;;10218911;28;20099;-71
2021/12/26 00:29:30;;;;;;;;;;;;;;;;;;10207807;28;21159;-71
2021/12/26 00:34:33;;;;;;;13.50;4.83;;;;;;;;;;10205188;29;19930;-71
2021/12/26 00:39:37;;;;;;;15.40;5.77;;;;;;;;;;10200140;29;20058;-69
2021/12/26 00:44:40;;;;;;;;;;;;;;;;;;10199835;29;20035;-70
2021/12/26 00:49:43;;;;;;;15.60;5.53;;;;;;;;;;10209605;29;20453;-70
2021/12/26 00:54:47;;;;;;;14.07;5.67;;;;;;;;;;10191617;29;20039;-69
2021/12/26 00:59:50;;;;;;;;;;;;;;;;;;10209793;28;20045;-70
2021/12/26 01:04:53;;;;;;;19.10;6.13;;;;;;;;;;10205019;29;19975;-69
2021/12/26 01:09:57;;;;;;;21.67;5.90;;;;;;;;;;10203992;29;20528;-68
2021/12/26 01:15:05;;;;;;;;;;;;;;;;;;10207267;29;20123;-70
2021/12/26 01:20:10;;;;;;;17.53;6.20;;;;;;;;;;10195701;29;19949;-68
2021/12/26 01:25:14;;;;;;;17.57;5.97;;;;;;;;;;10197492;29;20043;-69
2021/12/26 01:30:17;;;;;;;16.67;6.60;;;;;;;;;;10198871;29;20405;-71
2021/12/26 01:35:20;;;;;;;18.43;7.10;;;;;;;;;;10188947;29;20554;-70
2021/12/26 01:40:24;;;;;;;22.13;7.33;;;;;;;;;;10198898;28;20226;-70
2021/12/26 01:45:27;;;;;;;21.23;6.80;;;;;;;;;;10243324;28;20039;-71
2021/12/26 01:50:31;;;;;;;15.27;5.67;;;;;;;;;;10229190;28;20491;-71
2021/12/26 01:55:40;;;;;;;20.07;7.00;;;;;;;;;;10247274;28;20118;-70
2021/12/26 02:00:45;;;;;;;23.67;7.80;;;;;;;;;;10246283;28;20527;-70
2021/12/26 02:05:48;;;;;;;21.17;6.90;;;;;;;;;;10250895;28;20107;-71
2021/12/26 02:10:52;;;;;;;23.07;8.23;;;;;;;;;;10250584;28;20408;-69
2021/12/26 02:15:55;;;;;;;;;;;;;;;;;;10258042;28;20052;-72
2021/12/26 02:21:12;;;;;;;16.40;5.40;;;;;;;;;;10256101;28;20029;-71
2021/12/26 02:31:36;;;;;;;17.60;6.47;;;;;;;;;;10225753;28;20464;-71
2021/12/26 02:36:40;;;;;;;14.03;5.27;;;;;;;;;;10241445;28;20039;-71
2021/12/26 02:41:43;;;;;;;15.13;5.30;;;;;;;;;;10240632;28;20362;-70
2021/12/26 02:46:46;;;;;;;17.83;5.87;;;;;;;;;;10246927;28;20585;-70
2021/12/26 02:51:51;;;;;;;14.97;5.23;;;;;;;;;;10221108;28;20406;-70
2021/12/26 02:56:54;;;;;;;18.77;6.23;;;;;;;;;;10264410;28;20053;-71
2021/12/26 03:01:57;;;;;;;15.30;5.93;;;;;;;;;;10231462;28;20126;-71
2021/12/26 03:07:02;;;;;;;14.03;5.23;;;;;;;;;;10253614;28;20432;-70
2021/12/26 03:12:07;;;;;;;14.77;5.47;;;;;;;;;;10259205;28;20046;-69
2021/12/26 03:17:10;;;;;;;16.83;6.20;;;;;;;;;;10254728;28;20132;-70
2021/12/26 03:22:16;;;;;;;13.53;4.90;;;;;;;;;;10246388;28;20137;-70
2021/12/26 03:27:25;;;;;;;13.67;5.53;;;;;;;;;;10256538;28;20630;-70
2021/12/26 03:32:28;;;;;;;13.97;5.17;;;;;;;;;;10251342;28;20050;-70
2021/12/26 03:37:32;;;;;;;14.57;5.40;;;;;;;;;;10244584;28;20059;-70
2021/12/26 03:42:36;;;;;;;15.70;6.23;;;;;;;;;;10248653;28;20412;-70
2021/12/26 03:47:39;;;;;;;18.13;6.37;;;;;;;;;;10229615;28;20114;-69
2021/12/26 03:52:43;;;;;;;16.17;5.03;;;;;;;;;;10260945;28;20723;-69
2021/12/26 03:57:46;;;;;;;;;;;;;;;;;;10232177;28;20049;-69
2021/12/26 04:02:49;;;;;;;12.37;5.23;;;;;;;;;;10249725;28;19925;-69
2021/12/26 04:07:53;;;;;;;15.87;6.07;;;;;;;;;;10255812;28;20070;-70
2021/12/26 04:12:57;;;;;;;;;;;;;;;;;;10251506;28;20121;-71
2021/12/26 04:18:04;;;;;;;11.43;4.37;;;;;;;;;;10245350;28;20381;-70
2021/12/26 04:23:08;;;;;;;18.77;5.30;;;;;;;;;;10240129;28;20562;-70
2021/12/26 04:28:11;;;;;;;16.27;5.93;;;;;;;;;;10232905;28;20047;-70
2021/12/26 04:33:14;;;;;;;16.93;6.00;;;;;;;;;;10250079;28;20039;-70
2021/12/26 04:38:18;;;;;;;16.47;6.20;;;;;;;;;;10242423;28;20113;-70
2021/12/26 04:43:24;;;;;;;20.33;5.90;;;;;;;;;;10248225;28;20050;-71
2021/12/26 04:48:27;;;;;;;16.73;5.53;;;;;;;;;;10226497;28;20054;-71
2021/12/26 04:53:31;;;;;;;17.27;5.83;;;;;;;;;;10228822;28;20531;-68
2021/12/26 04:58:34;;;;;;;17.40;6.47;;;;;;;;;;10250340;28;20031;-70
2021/12/26 05:03:37;;;;;;;15.57;5.60;;;;;;;;;;10229009;28;20442;-70
2021/12/26 05:08:41;;;;;;;16.80;6.23;;;;;;;;;;10240604;28;20125;-70
2021/12/26 05:13:44;;;;;;;16.90;5.97;;;;;;;;;;10251159;28;20031;-70
2021/12/26 05:18:47;;;;;;;17.73;6.10;;;;;;;;;;10247125;28;20065;-71
2021/12/26 05:23:51;;;;;;;5.33;1.33;;;;;;;;;;10249545;28;20495;-69
2021/12/26 05:28:54;;;;;;;;;;;;;;;;;;10253966;28;20105;-69
2021/12/26 05:33:57;;;;;;;17.93;6.17;;;;;;;;;;10244144;28;19929;-70
2021/12/26 05:39:01;;;;;;;16.73;5.03;;;;;;;;;;10235818;28;20039;-70
2021/12/26 05:44:05;;;;;;;10.37;4.03;;;;;;;;;;10251736;28;20054;-70
2021/12/26 05:49:07;;;;;;;11.17;4.37;;;;;;;;;;10248671;28;20126;-70
2021/12/26 05:54:12;;;;;;;16.30;5.70;;;;;;;;;;10237730;23;20031;-74
2021/12/26 05:59:15;;;;;;;18.13;6.27;;;;;;;;;;10259417;28;20130;-75
2021/12/26 06:04:18;;;;;;;14.80;5.30;;;;;;;;;;10229854;29;20082;-75
2021/12/26 06:09:22;;;;;;;19.37;6.57;;;;;;;;;;10243738;28;20130;-73
2021/12/26 06:14:25;;;;;;;;;;;;;;;;;;10247189;29;20118;-74
2021/12/26 06:19:28;;;;;;;15.77;6.13;;;;;;;;;;10243105;28;19950;-74
2021/12/26 06:24:32;;;;;;;14.87;5.37;;;;;;;;;;10259270;23;20047;-76
2021/12/26 06:29:35;;;;;;;17.23;5.50;;;;;;;;;;10282308;28;20444;-76
2021/12/26 06:34:38;;;;;;;14.23;4.90;;;;;;;;;;10308373;28;20042;-77
2021/12/26 06:39:42;;;;;;;18.40;6.40;;;;;;;;;;10287075;28;20042;-76
2021/12/26 06:44:45;;;;;;;16.37;6.03;;;;;;;;;;10304847;28;20116;-77
2021/12/26 06:49:48;;;;;;;15.53;5.40;;;;;;;;;;10279582;28;20039;-75
2021/12/26 06:54:52;;;;;;;12.10;3.57;;;;;;;;;;10286050;28;20038;-76
2021/12/26 06:59:55;;;;;;;12.43;4.68;;;;;;;;;;10296105;28;20085;-76
2021/12/26 07:04:58;;;;;;;16.00;4.90;;;;;;;;;;10285659;28;20406;-77
2021/12/26 07:10:03;;;;;;;15.60;4.67;;;;;;;;;;10295228;28;20164;-76
2021/12/26 07:15:07;;;;;;;8.97;4.20;;;;;;;;;;10297690;28;20043;-77
2021/12/26 07:20:11;;;;;;;9.88;4.03;;;;;;;;;;10278770;28;20130;-74
2021/12/26 07:25:16;;;;;;;8.30;2.83;;;;;;;;;;10295694;28;20058;-76
2021/12/26 07:30:19;;;;;;;5.93;2.23;;;;;;;;;;10301527;28;20038;-76
2021/12/26 07:35:22;;;;;;;11.03;4.07;;;;;;;;;;10284639;28;20046;-77
2021/12/26 07:40:27;;;;;;;16.23;5.67;;;;;;;;;;10278354;28;20054;-77
2021/12/26 07:45:30;;;;;;;6.40;2.43;;;;;;;;;;10279330;28;20050;-76
2021/12/26 07:50:33;;;;;;;7.53;3.23;;;;;;;;;;10283977;28;20047;-76
2021/12/26 07:55:38;;;;;;;13.97;5.13;;;;;;;;;;10292499;28;20062;-75
2021/12/26 08:00:41;;;;;;;10.50;3.33;;;;;;;;;;10287079;28;20036;-76
2021/12/26 08:05:44;;;;;;;8.33;3.43;;;;;;;;;;10296701;28;20684;-76
2021/12/26 08:10:48;;;;;;;6.67;3.00;;;;;;;;;;10288064;28;20304;-77
2021/12/26 08:15:51;;;;;;;;;;;;;;;;;;10298149;28;20110;-77
2021/12/26 08:20:54;;;;;;;10.73;4.03;;;;;;;;;;10280448;28;20175;-77
2021/12/26 08:25:58;;;;;;;13.07;4.77;;;;;;;;;;10301584;28;20052;-77
2021/12/26 08:31:02;;;;;;;7.70;3.93;;;;;;;;;;10292361;28;20049;-76
2021/12/26 08:36:05;;;;;;;11.57;3.80;;;;;;;;;;10272123;28;20042;-76
2021/12/26 08:41:09;;;;;;;8.47;3.10;;;;;;;;;;10286818;28;21624;-77
2021/12/26 08:46:13;;;;;;;13.93;6.03;;;;;;;;;;10291334;28;20038;-77
2021/12/26 08:51:16;;;;;;;11.67;3.83;;;;;;;;;;10292014;28;20049;-76
2021/12/26 08:56:20;;;;;;;4.57;2.03;;;;;;;;;;10275052;28;20105;-77
2021/12/26 09:01:23;;;;;;;;;;;;;;;;;;10286907;28;20146;-77
2021/12/26 09:06:26;;;;;;;6.83;3.03;;;;;;;;;;10282106;28;19925;-77
2021/12/26 09:11:30;;;;;;;8.20;3.63;;;;;;;;;;10309340;28;20038;-76
2021/12/26 09:16:34;;;;;;;;;;;;;;;;;;10294076;28;20089;-76
2021/12/26 09:21:37;;;;;;;13.37;4.83;;;;;;;;;;10252681;28;20030;-76
2021/12/26 09:26:41;;;;;;;12.57;3.42;;;;;;;;;;10292320;28;20041;-76
2021/12/26 09:31:45;;;;;;;6.07;3.07;;;;;;;;;;10275454;28;20137;-77
2021/12/26 09:36:49;;;;;;;9.63;4.63;;;;;;;;;;10285721;28;20035;-76
2021/12/26 09:41:54;;;;;;;10.30;3.40;;;;;;;;;;10287426;28;20046;-76
2021/12/26 09:46:57;;;;;;;12.63;4.60;;;;;;;;;;10261506;28;20034;-77
2021/12/26 09:51:59;;;;;;;13.83;5.00;;;;;;;;;;10278439;28;20369;-76
2021/12/26 09:57:05;;;;;;;14.90;4.27;;;;;;;;;;10284164;28;20130;-77
2021/12/26 10:02:09;;;;;;;12.80;4.97;;;;;;;;;;10259696;28;20059;-77
2021/12/26 10:07:22;;;;;;;5.03;1.90;;;;;;;;;;10293017;28;20357;-75
2021/12/26 10:12:26;;;;;;;14.75;4.82;;;;;;;;;;10288089;28;20038;-76
2021/12/26 10:17:31;;;;;;;3.00;1.27;;;;;;;;;;10284355;28;20057;-77
2021/12/26 10:22:34;;;;;;;14.57;4.90;;;;;;;;;;10280176;28;20042;-76
2021/12/26 10:27:41;;;;;;;12.10;4.70;;;;;;;;;;10290403;28;20475;-76
2021/12/26 10:32:44;;;;;;;11.47;4.70;;;;;;;;;;10287496;28;20034;-76
2021/12/26 10:37:48;;;;;;;11.57;4.33;;;;;;;;;;10260949;28;20391;-78
2021/12/26 10:42:54;;;;;;;12.85;4.97;;;;;;;;;;10288336;28;20379;-78
2021/12/26 10:47:59;;;;;;;13.93;4.45;;;;;;;;;;10293519;28;20123;-77
2021/12/26 10:53:04;;;;;;;13.40;5.32;;;;;;;;;;10297383;28;20038;-77
2021/12/26 10:58:09;;;;;;;12.95;4.40;;;;;;;;;;10278891;28;20035;-77
2021/12/26 11:03:13;;;;;;;15.37;5.47;;;;;;;;;;10276470;28;20133;-76
2021/12/26 11:08:17;;;;;;;14.63;5.13;;;;;;;;;;10266052;28;20066;-76
2021/12/26 11:13:22;;;;;;;12.57;5.18;;;;;;;;;;10281665;28;20065;-77
2021/12/26 11:18:25;;;;;;;11.27;5.00;;;;;;;;;;10295444;28;20054;-77
2021/12/26 11:23:30;;;;;;;12.80;4.47;;;;;;;;;;10298288;28;20042;-77
2021/12/26 11:28:35;;;;;;;13.05;4.75;;;;;;;;;;10265302;28;20038;-76
2021/12/26 11:33:39;;;;;;;11.80;4.85;;;;;;;;;;10291367;28;20048;-77
2021/12/26 11:38:42;;;;;;;11.98;4.97;;;;;;;;;;10291595;28;20594;-76
2021/12/26 11:43:59;;;;;;;14.90;5.83;;;;;;;;;;10272244;28;20066;-77
2021/12/26 11:49:12;;;;;;;13.55;4.85;;;;;;;;;;10294923;28;20039;-77
2021/12/26 11:54:30;;;;;;;11.82;5.13;;;;;;;;;;10312190;23;20058;-77
2021/12/26 11:59:44;;;;;;;13.05;4.75;;;;;;;;;;10287844;28;20070;-78
2021/12/26 12:05:12;;;;;;;13.32;5.18;;;;;;;;;;10270560;28;20151;-78
2021/12/26 12:10:46;;;;;;;13.48;5.65;;;;;;;;;;10241508;28;20058;-78
2021/12/26 12:15:52;;;;;;;13.65;4.78;;;;;;;;;;10165424;28;20058;-77
2021/12/26 12:21:07;;;;;;;8.95;3.78;;;;;;;;;;10266771;28;20043;-77
2021/12/26 12:26:10;;;;;;;9.93;4.45;;;;;;;;;;10269306;23;20050;-70
2021/12/26 12:31:18;;;;;;;12.07;4.63;;;;;;;;;;10274999;28;20066;-70
2021/12/26 12:36:26;;;;;;;9.98;4.70;;;;;;;;;;10262175;28;20130;-71
2021/12/26 12:41:35;;;;;;;13.55;5.50;;;;;;;;;;10271463;28;20168;-72
2021/12/26 12:46:56;;;;;;;13.10;4.80;;;;;;;;;;10252572;28;20324;-71
2021/12/26 12:51:59;;;;;;;11.55;4.80;;;;;;;;;;10273590;28;20049;-71
2021/12/26 12:57:03;;;;;;;11.95;4.15;;;;;;;;;;10272025;28;20070;-71
2021/12/26 13:02:10;;;;;;;9.15;4.28;;;;;;;;;;10279801;28;20047;-71
2021/12/26 13:07:17;;;;;;;13.05;3.85;;;;;;;;;;10274492;28;20043;-70
2021/12/26 13:12:20;;;;;;;11.00;4.65;;;;;;;;;;10256226;28;20525;-69
2021/12/26 13:17:29;;;;;;;12.68;5.05;;;;;;;;;;10275058;28;20035;-70
2021/12/26 13:22:40;;;;;;;11.02;5.45;;;;;;;;;;10276570;28;20034;-71
2021/12/26 13:27:43;;;;;;;13.35;4.90;;;;;;;;;;10273803;28;20043;-71
2021/12/26 13:32:47;;;;;;;18.67;6.37;;;;;;;;;;10256381;28;20585;-72
2021/12/26 13:37:50;;;;;;;17.45;6.57;;;;;;;;;;10256569;28;20341;-71
2021/12/26 13:42:53;;;;;;;15.97;6.90;;;;;;;;;;10277439;28;20031;-70
2021/12/26 13:47:58;;;;;;;20.20;7.07;;;;;;;;;;10271898;28;20408;-71
2021/12/26 13:53:02;;;;;;;15.27;6.47;;;;;;;;;;10276347;28;20432;-71
2021/12/26 13:58:06;;;;;;;14.63;6.05;;;;;;;;;;10256707;28;20053;-71
2021/12/26 14:03:11;;;;;;;21.55;7.40;;;;;;;;;;10257362;28;20488;-72
2021/12/26 14:08:14;;;;;;;17.17;7.30;;;;;;;;;;10272031;28;20062;-72
2021/12/26 14:13:20;;;;;;;18.43;7.33;;;;;;;;;;10280411;28;20574;-73
2021/12/26 14:18:28;;;;;;;19.50;6.63;;;;;;;;;;10291854;28;20446;-71
2021/12/26 14:23:31;;;;;;;18.97;7.90;;;;;;;;;;10294031;28;20531;-72
2021/12/26 14:28:39;;;;;;;15.75;6.22;;;;;;;;;;10292080;28;20035;-72
2021/12/26 14:33:47;;;;;;;18.10;7.30;;;;;;;;;;10285018;28;20041;-71
2021/12/26 14:38:54;;;;;;;19.40;7.33;;;;;;;;;;10293589;28;20420;-69
2021/12/26 14:43:57;;;;;;;21.58;7.30;;;;;;;;;;10293524;28;20382;-71
2021/12/26 14:49:09;;;;;;;17.08;6.35;;;;;;;;;;10319344;28;20043;-72
2021/12/26 14:54:12;;;;;;;18.50;7.10;;;;;;;;;;10319456;28;20045;-71
2021/12/26 14:59:26;;;;;;;23.85;6.95;;;;;;;;;;10300228;28;20041;-71
2021/12/26 15:04:31;;;;;;;16.10;6.47;;;;;;;;;;10328191;28;20034;-72
2021/12/26 15:09:43;;;;;;;18.73;7.20;;;;;;;;;;10321192;28;20525;-72
2021/12/26 15:14:46;;;;;;;20.10;6.93;;;;;;;;;;10320748;28;20202;-71
2021/12/26 15:19:50;;;;;;;17.73;6.83;;;;;;;;;;10332909;28;20403;-72
2021/12/26 15:24:55;;;;;;;18.03;7.07;;;;;;;;;;10324658;28;20113;-71
2021/12/26 15:29:59;;;;;;;19.33;7.30;;;;;;;;;;10302197;28;20046;-69
2021/12/26 15:35:04;;;;;;;23.50;6.95;;;;;;;;;;10322788;28;20312;-71
2021/12/26 15:40:08;;;;;;;19.50;6.97;;;;;;;;;;10302004;28;20042;-70
2021/12/26 15:45:12;;;;;;;;;;;;;;;;;;10323656;28;20509;-70
2021/12/26 15:50:17;;;;;;;20.53;7.10;;;;;;;;;;10300684;28;20103;-70
2021/12/26 15:55:20;;;;;;;28.20;10.40;;;;;;;;;;10300015;28;20046;-72
2021/12/26 16:00:23;;;;;;;20.77;8.00;;;;;;;;;;10322617;28;20429;-72
2021/12/26 16:05:28;;;;;;;19.17;7.67;;;;;;;;;;10302594;28;20100;-71
2021/12/26 16:10:32;;;;;;;18.13;6.33;;;;;;;;;;10293275;28;20795;-71
2021/12/26 16:15:35;;;;;;;17.77;6.07;;;;;;;;;;10319554;28;20117;-72
2021/12/26 16:20:40;;;;;;;7.22;3.22;;;;;;;;;;10329230;28;20034;-70
2021/12/26 16:25:43;;;;;;;9.57;3.30;;;;;;;;;;10323558;28;20077;-71
2021/12/26 16:30:47;;;;;;;14.45;5.43;;;;;;;;;;10301261;28;20038;-70
2021/12/26 16:35:51;;;;;;;4.38;2.33;;;;;;;;;;10318585;28;20050;-71
2021/12/26 16:40:55;;;;;;;10.87;4.73;;;;;;;;;;10318704;28;20319;-70
2021/12/26 16:45:58;;;;;;;9.43;3.63;;;;;;;;;;10315724;28;20085;-71
2021/12/26 16:51:03;;;;;;;6.80;3.20;;;;;;;;;;10299196;28;20308;-71
2021/12/26 16:56:06;;;;;;;9.83;3.80;;;;;;;;;;10302197;28;20211;-70
2021/12/26 17:01:11;;;;;;;13.90;5.27;;;;;;;;;;10315756;28;20043;-69
2021/12/26 17:06:18;;;;;;;12.27;3.90;;;;;;;;;;10338264;28;20039;-70
2021/12/26 17:11:21;;;;;;;11.90;3.73;;;;;;;;;;10331739;28;20562;-70
2021/12/26 17:16:24;;;;;;;10.23;4.47;;;;;;;;;;10319074;28;20062;-71
2021/12/26 17:21:28;;;;;;;7.00;2.23;;;;;;;;;;10323981;28;20042;-70
2021/12/26 17:26:33;;;;;;;;;;;;;;;;;;10329416;28;20491;-72
2021/12/26 17:31:37;;;;;;;9.10;3.57;;;;;;;;;;10338028;28;19941;-70
2021/12/26 17:36:42;;;;;;;11.60;4.68;;;;;;;;;;10301984;28;20030;-71
2021/12/26 17:41:45;;;;;;;14.30;5.57;;;;;;;;;;10312819;28;20057;-72
2021/12/26 17:46:48;;;;;;;13.30;4.80;;;;;;;;;;10313761;28;20074;-71
2021/12/26 17:51:53;;;;;;;14.17;5.57;;;;;;;;;;10298538;28;20486;-71
2021/12/26 17:56:56;;;;;;;13.33;4.70;;;;;;;;;;10304713;23;20137;-73
2021/12/26 18:02:00;;;;;;;13.27;5.10;;;;;;;;;;10275472;28;20057;-73
2021/12/26 18:07:05;;;;;;;14.40;5.70;;;;;;;;;;10255580;28;20283;-72
2021/12/26 18:12:08;;;;;;;13.17;5.30;;;;;;;;;;10240138;29;20039;-73
2021/12/26 18:17:11;;;;;;;16.43;5.53;;;;;;;;;;10232698;28;20042;-72
2021/12/26 18:22:15;;;;;;;12.87;5.47;;;;;;;;;;10236584;29;20620;-75
2021/12/26 18:27:19;;;;;;;8.27;3.17;;;;;;;;;;10251550;23;20043;-78
2021/12/26 18:32:22;;;;;;;15.40;5.77;;;;;;;;;;10256079;28;20039;-79
2021/12/26 18:37:27;;;;;;;10.50;4.57;;;;;;;;;;10259643;28;20294;-77
2021/12/26 18:42:29;;;;;;;;;;;;;;;;;;10251870;28;20067;-80
2021/12/26 18:47:32;;;;;;;13.13;5.17;;;;;;;;;;10246850;28;19972;-77
2021/12/26 18:52:37;;;;;;;15.13;5.87;;;;;;;;;;10247374;28;20070;-78
2021/12/26 18:57:40;;;;;;;12.73;4.33;;;;;;;;;;10270914;28;20034;-78
2021/12/26 19:02:47;;;;;;;10.23;3.53;;;;;;;;;;10279477;28;20062;-79
2021/12/26 19:07:52;;;;;;;9.30;3.17;;;;;;;;;;10277751;28;20035;-77
2021/12/26 19:12:54;;;;;;;;;;;;;;;;;;10263899;28;20043;-78
2021/12/26 19:17:57;;;;;;;8.43;3.17;;;;;;;;;;10253714;28;20367;-79
2021/12/26 19:23:03;;;;;;;10.07;4.07;;;;;;;;;;10242753;28;20114;-78
2021/12/26 19:28:06;;;;;;;12.07;5.10;;;;;;;;;;10258151;28;20119;-77
2021/12/26 19:33:09;;;;;;;12.38;5.15;;;;;;;;;;10272057;28;20233;-77
2021/12/26 19:38:17;;;;;;;12.97;4.87;;;;;;;;;;10276006;28;20061;-77
2021/12/26 19:43:19;;;;;;;;;;;;;;;;;;10258506;28;20055;-79
2021/12/26 19:48:23;;;;;;;7.10;3.57;;;;;;;;;;10271570;28;20012;-78
2021/12/26 19:53:29;;;;;;;3.70;2.08;;;;;;;;;;10269823;28;20409;-77
2021/12/26 19:58:32;;;;;;;10.47;4.87;;;;;;;;;;10264484;28;20035;-78
2021/12/26 20:03:35;;;;;;;16.50;6.50;;;;;;;;;;10254896;28;20043;-78
2021/12/26 20:08:40;;;;;;;14.30;6.07;;;;;;;;;;10273787;28;20457;-77
2021/12/26 20:13:43;;;;;;;10.80;4.97;;;;;;;;;;10264215;28;20708;-78
2021/12/26 20:18:48;;;;;;;14.02;5.75;;;;;;;;;;10242809;28;20107;-78
2021/12/26 20:23:54;;;;;;;12.93;5.30;;;;;;;;;;10254803;28;20189;-78
2021/12/26 20:28:58;;;;;;;9.80;3.93;;;;;;;;;;10260630;28;20027;-78
2021/12/26 20:34:01;;;;;;;16.13;6.23;;;;;;;;;;10250481;28;20117;-78
2021/12/26 20:39:07;;;;;;;13.73;6.23;;;;;;;;;;10261671;28;20087;-77
2021/12/26 20:44:11;;;;;;;14.57;5.93;;;;;;;;;;10265547;28;20066;-77
2021/12/26 20:49:14;;;;;;;14.38;5.53;;;;;;;;;;10296876;28;20047;-78
2021/12/26 20:54:21;;;;;;;13.73;5.53;;;;;;;;;;10292648;28;20046;-77
2021/12/26 20:59:24;;;;;;;8.98;3.50;;;;;;;;;;10251776;28;20093;-78
2021/12/26 21:04:28;;;;;;;10.87;4.50;;;;;;;;;;10255549;28;20039;-79
2021/12/26 21:09:34;;;;;;;13.40;5.53;;;;;;;;;;10253420;28;20082;-79
2021/12/26 21:14:37;;;;;;;6.80;2.93;;;;;;;;;;10254883;28;20109;-77
2021/12/26 21:19:40;;;;;;;10.13;4.37;;;;;;;;;;10256780;28;20035;-79
2021/12/26 21:24:45;;;;;;;14.77;5.70;;;;;;;;;;10259559;28;20038;-78
2021/12/26 21:29:48;;;;;;;17.70;5.80;;;;;;;;;;10261108;28;20042;-77
2021/12/26 21:34:51;;;;;;;11.32;5.05;;;;;;;;;;10256521;28;20074;-78
2021/12/26 21:39:59;;;;;;;8.17;3.40;;;;;;;;;;10270027;28;20062;-79
2021/12/26 21:45:04;;;;;;;7.63;2.47;;;;;;;;;;10266922;28;20042;-79
2021/12/26 21:50:12;;;;;;;5.53;2.47;;;;;;;;;;10272776;28;20131;-78
2021/12/26 21:55:17;;;;;;;12.38;5.38;;;;;;;;;;10260176;28;20071;-78
2021/12/26 22:00:21;;;;;;;8.23;3.20;;;;;;;;;;10256384;28;20039;-80
2021/12/26 22:05:25;;;;;;;8.77;4.07;;;;;;;;;;10259954;28;20038;-78
2021/12/26 22:10:30;;;;;;;13.75;6.03;;;;;;;;;;10271314;28;20090;-79
2021/12/26 22:15:33;;;;;;;10.13;4.57;;;;;;;;;;10253692;28;20069;-79
2021/12/26 22:20:36;;;;;;;12.60;5.37;;;;;;;;;;10250958;28;20576;-78
2021/12/26 22:25:42;;;;;;;14.50;3.77;;;;;;;;;;10265014;28;20499;-77
2021/12/26 22:30:45;;;;;;;7.43;2.67;;;;;;;;;;10263743;28;20791;-78
2021/12/26 22:35:49;;;;;;;10.20;5.00;;;;;;;;;;10246712;28;20043;-79
2021/12/26 22:40:54;;;;;;;9.87;4.77;;;;;;;;;;10254482;28;20031;-78
2021/12/26 22:45:56;;;;;;;14.97;5.77;;;;;;;;;;10231598;28;20129;-79
2021/12/26 22:51:00;;;;;;;12.40;5.80;;;;;;;;;;10260504;28;20126;-80
2021/12/26 22:56:05;;;;;;;15.30;6.73;;;;;;;;;;10259115;28;20057;-78
2021/12/26 23:01:08;;;;;;;8.77;3.70;;;;;;;;;;10237321;28;20050;-79
2021/12/26 23:06:11;;;;;;;8.15;4.63;;;;;;;;;;10254004;28;20131;-78
2021/12/26 23:11:15;;;;;;;5.90;2.37;;;;;;;;;;10271674;28;20758;-77
2021/12/26 23:16:18;;;;;;;7.40;3.72;;;;;;;;;;10264093;28;20146;-77
2021/12/26 23:21:22;;;;;;;6.40;3.13;;;;;;;;;;10265866;28;20086;-78
2021/12/26 23:26:26;;;;;;;8.70;3.97;;;;;;;;;;10264094;28;20055;-79
2021/12/26 23:31:30;;;;;;;13.27;5.53;;;;;;;;;;10258506;28;20039;-78
2021/12/26 23:36:36;;;;;;;8.90;3.53;;;;;;;;;;10289268;28;20082;-77
2021/12/26 23:41:43;;;;;;;5.17;2.97;;;;;;;;;;10264381;28;20039;-78
2021/12/26 23:46:47;;;;;;;7.50;2.90;;;;;;;;;;10260518;28;20054;-78
2021/12/26 23:51:50;;;;;;;6.00;3.00;;;;;;;;;;10235857;28;20090;-78
2021/12/26 23:56:54;;;;;;;8.00;4.17;;;;;;;;;;10264538;28;20035;-78
